Briary, Texas
Current Conditions -  °F | °C
As of 4:55 AM on Sunday 23 Nov 2014 (Local Time) from KT35 Reporting Station
Overcast Overcast  
Wind Chill: 59°   Ceiling: 900
Heat Index: 59°   Visibility: 10mi
Dew Point: 58°   Wind: 5mph
Humidity: 97%   Direction: 270°W
Pressure: 29.66"   Gusts: NA
Location:  31.0981°N, 96.99°W
Report Text: KT35 231055Z AUTO 27004KT 10SM OVC009 15/15 A2966 RMK AO2 P0001 T01500145
Loading
Personal Weather Stations






























Interactive Weather Map New forecast layout! Learn more

10-Day Weather Forecast

Advertisements
Track Severe Weather on mobile